Weather at Marqua Airport

Public forecast

Using degrees Celsius for public forecast. Weather courtesy of forecast.io.

Closest aviation weather report (METAR) to Marqua Airport

Closest report is Alice Springs Airport, 194.2 nm (359.6 km) WSW. Retrieved 2021/06/20 09:30 UTC (6 minutes ago):

YBAS 200930Z AUTO 13005KT 9999 // NCD 13/02 Q1021 RF000/0000

Closest aviation forecast (TAF) to Marqua Airport

Closest forecast is Mount Isa Airport, 179.2 nm (331.9 km) NE. Retrieved 2021/06/20 06:03 UTC (4 hours ago):

TAF TAF YBMA 200409Z 2006/2018 10005KT CAVOK FM201000 VRB05KT CAVOK